Terminal Aerodrome Forecast
Issued by NWS

Home | Current Version | Previous Version | Text Only | Print | Product List | Glossary On
Versions: 1 2 3 4 5 6 7 8 9 10 11 12 13 14 15 16 17
000
FTUS41 KCAR 272344
TAFFVE
TAF
KFVE 272344Z 2800/2824 33008KT P6SM SCT035
     FM280900 34007KT P6SM SCT025 BKN120
     FM281600 34008KT P6SM BKN035=

USA.gov is the U.S. government's official web portal to all federal, state and local government web resources and services.